createdAt,value
2022-11-17T00:00:27.992Z,9.57
2022-11-17T00:02:51.750Z,10.97
2022-11-17T00:05:16.342Z,11.37
2022-11-17T00:07:39.885Z,10.38
2022-11-17T00:10:05.822Z,9.50
2022-11-17T00:12:46.480Z,11.50
2022-11-17T00:15:10.679Z,11.47
2022-11-17T00:17:34.202Z,11.60
2022-11-17T00:20:15.215Z,10.53
2022-11-17T00:22:38.962Z,11.40
2022-11-17T00:25:02.542Z,10.70
2022-11-17T00:27:27.573Z,11.60
2022-11-17T00:29:51.150Z,11.97
2022-11-17T00:32:33.103Z,11.60
2022-11-17T00:34:56.746Z,11.70
2022-11-17T00:37:20.310Z,12.17
2022-11-17T00:39:44.143Z,11.33
2022-11-17T00:42:07.722Z,12.43
2022-11-17T00:44:32.735Z,12.20
2022-11-17T00:46:56.303Z,11.37
2022-11-17T00:49:21.618Z,10.83
2022-11-17T00:51:45.187Z,11.50
2022-11-17T00:54:12.849Z,11.67
2022-11-17T00:56:36.362Z,11.83
2022-11-17T00:59:00.186Z,11.20
2022-11-17T01:01:25.256Z,11.37
2022-11-17T01:03:49.300Z,9.97
2022-11-17T01:06:15.645Z,11.87
2022-11-17T01:08:39.737Z,12.10
2022-11-17T01:11:10.730Z,11.80
2022-11-17T01:13:34.552Z,9.20
2022-11-17T01:16:03.531Z,10.93
2022-11-17T01:18:29.463Z,12.07
2022-11-17T01:20:53.022Z,11.97
2022-11-17T01:23:16.609Z,10.13
2022-11-17T01:25:40.917Z,10.80
2022-11-17T01:28:04.840Z,11.63
2022-11-17T01:30:28.424Z,11.47
2022-11-17T01:32:52.035Z,10.13
2022-11-17T01:35:17.180Z,11.63
2022-11-17T01:37:40.857Z,11.03
2022-11-17T01:40:05.112Z,11.80
2022-11-17T01:42:29.261Z,10.53
2022-11-17T01:44:59.748Z,10.30
2022-11-17T01:47:28.743Z,10.47
2022-11-17T01:49:57.145Z,10.87
2022-11-17T01:52:22.500Z,9.80
2022-11-17T01:54:49.938Z,10.90
2022-11-17T01:57:18.830Z,10.50
2022-11-17T01:59:46.552Z,9.73
2022-11-17T02:02:10.229Z,9.60
2022-11-17T02:04:36.919Z,10.30
2022-11-17T02:07:09.667Z,10.33
2022-11-17T02:09:37.486Z,10.83
2022-11-17T02:12:01.070Z,11.13
2022-11-17T02:14:24.703Z,9.83
2022-11-17T02:16:48.269Z,11.20
2022-11-17T02:19:16.565Z,10.00
2022-11-17T02:22:24.055Z,11.03
2022-11-17T02:25:16.577Z,10.33
2022-11-17T02:28:04.505Z,9.90
2022-11-17T02:30:34.942Z,10.63
2022-11-17T02:33:04.856Z,9.73
2022-11-17T02:35:37.625Z,8.53
2022-11-17T02:38:12.328Z,9.27
2022-11-17T02:40:41.382Z,11.20
2022-11-17T02:43:30.152Z,9.90
2022-11-17T02:45:58.946Z,10.53
2022-11-17T02:48:29.537Z,9.00
2022-11-17T02:50:55.706Z,11.13
2022-11-17T02:53:21.209Z,10.87
2022-11-17T02:55:51.706Z,11.07
2022-11-17T02:58:16.633Z,11.80
2022-11-17T03:00:52.992Z,9.00
2022-11-17T03:03:34.453Z,11.33
2022-11-17T03:06:11.738Z,11.13
2022-11-17T03:08:49.366Z,12.03
2022-11-17T03:11:14.717Z,10.87
2022-11-17T03:13:47.707Z,10.63
2022-11-17T03:16:25.917Z,9.70
2022-11-17T03:19:03.431Z,10.77
2022-11-17T03:21:32.915Z,9.93
2022-11-17T03:24:05.107Z,11.07
2022-11-17T03:26:34.908Z,11.00
2022-11-17T03:29:03.562Z,11.13
2022-11-17T03:31:29.483Z,10.70
2022-11-17T03:33:54.001Z,9.50
2022-11-17T03:36:22.582Z,9.03
2022-11-17T03:38:54.242Z,11.20
2022-11-17T03:41:21.372Z,11.60
2022-11-17T03:43:48.544Z,12.00
2022-11-17T03:46:17.382Z,10.80
2022-11-17T03:48:48.295Z,10.67
2022-11-17T03:51:16.115Z,10.90
2022-11-17T03:53:39.625Z,11.07
2022-11-17T03:56:14.682Z,11.43
2022-11-17T03:58:47.258Z,9.87
2022-11-17T04:01:12.813Z,10.67
2022-11-17T04:03:38.395Z,11.67
2022-11-17T04:06:02.231Z,10.60
2022-11-17T04:08:29.554Z,11.17
2022-11-17T04:11:10.833Z,10.30
2022-11-17T04:14:03.334Z,11.00
2022-11-17T04:16:28.410Z,11.33
2022-11-17T04:18:55.904Z,11.37
2022-11-17T04:21:22.413Z,11.37
2022-11-17T04:23:45.979Z,8.33
2022-11-17T04:26:28.286Z,10.60
2022-11-17T04:28:52.522Z,11.83
2022-11-17T04:31:18.043Z,12.17
2022-11-17T04:33:45.378Z,10.33
2022-11-17T04:36:10.083Z,11.97
2022-11-17T04:38:33.812Z,12.33
2022-11-17T04:41:23.997Z,7.80
2022-11-17T04:43:48.001Z,12.10
2022-11-17T04:46:11.533Z,12.97
2022-11-17T04:48:35.139Z,11.67
2022-11-17T04:51:00.151Z,12.03
2022-11-17T04:53:24.761Z,11.87
2022-11-17T04:55:48.419Z,12.80
2022-11-17T04:58:12.058Z,13.20
2022-11-17T05:00:35.609Z,13.40
2022-11-17T05:02:59.245Z,12.63
2022-11-17T05:05:22.750Z,10.23
2022-11-17T05:07:47.728Z,12.47
2022-11-17T05:10:13.926Z,12.50
2022-11-17T05:12:54.714Z,11.37
2022-11-17T05:15:38.394Z,10.60
2022-11-17T05:18:00.947Z,12.13
2022-11-17T05:20:24.504Z,12.53
2022-11-17T05:23:07.238Z,13.10
2022-11-17T05:25:30.870Z,12.40
2022-11-17T05:27:55.135Z,12.50
2022-11-17T05:30:18.842Z,12.67
2022-11-17T05:32:42.382Z,12.50
2022-11-17T05:35:07.089Z,13.00
2022-11-17T05:37:30.860Z,12.33
2022-11-17T05:39:55.934Z,12.67
2022-11-17T05:42:19.525Z,12.20
2022-11-17T05:44:43.284Z,12.37
2022-11-17T05:47:07.003Z,13.57
2022-11-17T05:49:30.734Z,11.33
2022-11-17T05:51:54.408Z,10.97
2022-11-17T05:54:18.165Z,11.90
2022-11-17T05:56:46.942Z,13.53
2022-11-17T05:59:24.728Z,13.40
2022-11-17T06:01:57.978Z,8.60
2022-11-17T06:04:21.928Z,12.20
2022-11-17T06:06:46.706Z,9.50
2022-11-17T06:09:10.338Z,12.60
2022-11-17T06:11:33.845Z,12.57
2022-11-17T06:13:58.866Z,10.20
2022-11-17T06:16:26.099Z,13.10
2022-11-17T06:18:55.503Z,13.67
2022-11-17T06:21:19.636Z,13.23
2022-11-17T06:23:44.315Z,13.30
2022-11-17T06:26:10.742Z,13.17
2022-11-17T06:28:36.721Z,12.07
2022-11-17T06:31:02.225Z,13.50
2022-11-17T06:33:26.074Z,14.07
2022-11-17T06:35:50.761Z,11.30
2022-11-17T06:38:14.394Z,13.30
2022-11-17T06:40:38.026Z,14.10
2022-11-17T06:43:10.620Z,13.03
2022-11-17T06:45:35.002Z,13.63
2022-11-17T06:47:59.938Z,13.67
2022-11-17T06:50:23.734Z,13.93
2022-11-17T06:52:47.329Z,13.57
2022-11-17T06:55:11.346Z,11.20
2022-11-17T06:57:35.007Z,14.33
2022-11-17T06:59:58.591Z,14.37
2022-11-17T07:02:22.121Z,14.00
2022-11-17T07:04:47.095Z,10.10
2022-11-17T07:07:11.210Z,13.67
2022-11-17T07:09:34.836Z,14.87
2022-11-17T07:11:58.862Z,13.83
2022-11-17T07:14:22.458Z,12.17
2022-11-17T07:16:46.032Z,14.13
2022-11-17T07:19:09.896Z,12.97
2022-11-17T07:21:34.839Z,11.30
2022-11-17T07:23:58.539Z,13.53
2022-11-17T07:26:22.129Z,14.47
2022-11-17T07:28:45.767Z,14.00
2022-11-17T07:31:10.800Z,12.30
2022-11-17T07:33:34.704Z,12.90
2022-11-17T07:36:02.689Z,8.53
2022-11-17T07:38:27.673Z,13.90
2022-11-17T07:40:51.358Z,11.33
2022-11-17T07:43:14.896Z,12.73
2022-11-17T07:45:38.741Z,12.20
2022-11-17T07:48:06.998Z,12.40
2022-11-17T07:50:30.918Z,12.37
2022-11-17T07:52:58.212Z,12.77
2022-11-17T07:55:24.131Z,10.50
2022-11-17T07:57:47.806Z,12.33
2022-11-17T08:00:13.580Z,13.13
2022-11-17T08:02:37.140Z,12.60
2022-11-17T08:05:00.651Z,11.07
2022-11-17T08:07:24.547Z,12.23
2022-11-17T08:09:48.113Z,12.73
2022-11-17T08:12:13.063Z,11.23
2022-11-17T08:14:36.570Z,10.93
2022-11-17T08:17:00.148Z,10.03
2022-11-17T08:19:23.657Z,10.80
2022-11-17T08:21:47.659Z,10.00
2022-11-17T08:24:13.274Z,11.20
2022-11-17T08:26:36.862Z,11.73
2022-11-17T08:29:02.116Z,12.17
2022-11-17T08:31:25.964Z,12.17
2022-11-17T08:33:49.540Z,12.60
2022-11-17T08:36:13.147Z,12.27
2022-11-17T08:38:37.239Z,12.27
2022-11-17T08:41:04.164Z,12.20
2022-11-17T08:43:27.782Z,12.03
2022-11-17T08:45:52.908Z,12.10
2022-11-17T08:48:16.470Z,10.33
2022-11-17T08:50:40.168Z,13.73
2022-11-17T08:53:03.693Z,9.03
2022-11-17T08:55:27.485Z,12.47
2022-11-17T08:57:51.040Z,8.90
2022-11-17T09:00:16.393Z,14.07
2022-11-17T09:02:41.561Z,6.83
2022-11-17T09:05:05.758Z,13.77
2022-11-17T09:07:34.550Z,12.57
2022-11-17T09:09:58.426Z,14.30
2022-11-17T09:12:21.965Z,12.60
2022-11-17T09:14:45.653Z,10.67
2022-11-17T09:17:09.710Z,14.45
2022-11-17T09:19:34.817Z,13.00
2022-11-17T09:21:58.441Z,13.93
2022-11-17T09:24:22.245Z,14.40
2022-11-17T09:26:45.847Z,13.40
2022-11-17T09:29:10.090Z,13.83
2022-11-17T09:31:33.684Z,13.17
2022-11-17T09:34:00.840Z,13.47
2022-11-17T09:36:28.831Z,13.63
2022-11-17T09:38:52.410Z,14.03
2022-11-17T09:41:28.931Z,12.97
2022-11-17T09:44:03.777Z,12.63
2022-11-17T09:46:44.428Z,13.80
2022-11-17T09:49:18.844Z,13.73
2022-11-17T09:51:46.467Z,12.03
2022-11-17T09:54:21.009Z,9.70
2022-11-17T09:56:47.787Z,13.93
2022-11-17T09:59:15.330Z,13.27
2022-11-17T10:01:39.209Z,13.83
2022-11-17T10:04:02.816Z,13.43
2022-11-17T10:06:28.885Z,14.37
2022-11-17T10:09:01.924Z,10.73
2022-11-17T10:11:34.164Z,13.60
2022-11-17T10:13:58.074Z,14.17
2022-11-17T10:16:21.679Z,11.80
2022-11-17T10:18:45.279Z,14.20
2022-11-17T10:21:10.256Z,13.87
2022-11-17T10:23:42.845Z,14.93
2022-11-17T10:26:14.318Z,12.77
2022-11-17T10:28:38.077Z,8.57
2022-11-17T10:31:04.740Z,9.10
2022-11-17T10:33:38.039Z,9.90
2022-11-17T10:36:02.102Z,12.03
2022-11-17T10:38:29.578Z,12.07
2022-11-17T10:40:54.859Z,13.27
2022-11-17T10:43:25.838Z,12.83
2022-11-17T10:45:51.841Z,10.37
2022-11-17T10:48:26.730Z,11.40
2022-11-17T10:50:56.186Z,12.10
2022-11-17T10:53:29.976Z,12.85
2022-11-17T10:56:05.331Z,11.20
2022-11-17T10:58:32.168Z,11.73
2022-11-17T11:00:58.498Z,9.83
2022-11-17T11:03:25.921Z,12.73
2022-11-17T11:06:16.223Z,10.52
2022-11-17T11:08:52.639Z,11.48
2022-11-17T11:11:42.630Z,10.17
2022-11-17T11:14:17.507Z,12.83
2022-11-17T11:16:47.661Z,11.73
2022-11-17T11:19:16.707Z,12.10
2022-11-17T11:22:23.421Z,11.33
2022-11-17T11:24:53.073Z,11.57
2022-11-17T11:27:47.274Z,11.70
2022-11-17T11:30:15.850Z,11.67
2022-11-17T11:32:56.330Z,11.73
2022-11-17T11:35:50.657Z,9.70
2022-11-17T11:38:42.489Z,11.50
2022-11-17T11:41:25.073Z,11.52
2022-11-17T11:44:03.931Z,12.00
2022-11-17T11:46:43.447Z,10.15
2022-11-17T11:49:17.689Z,11.27
2022-11-17T11:51:41.465Z,11.70
2022-11-17T11:54:13.602Z,12.25
2022-11-17T11:56:40.807Z,11.13
2022-11-17T11:59:08.818Z,9.47
2022-11-17T12:01:46.335Z,8.50
2022-11-17T12:04:26.662Z,10.48
2022-11-17T12:06:57.388Z,11.47
2022-11-17T12:09:54.545Z,10.50
2022-11-17T12:12:21.908Z,11.77
2022-11-17T12:15:14.163Z,11.13
2022-11-17T12:17:39.585Z,10.27
2022-11-17T12:20:10.916Z,11.47
2022-11-17T12:23:08.616Z,10.83
2022-11-17T12:25:36.108Z,11.23
2022-11-17T12:27:59.785Z,11.03
2022-11-17T12:30:53.830Z,11.30
2022-11-17T12:33:18.856Z,9.87
2022-11-17T12:35:42.465Z,10.57
2022-11-17T12:38:42.852Z,11.48
2022-11-17T12:41:07.333Z,11.40
2022-11-17T12:43:32.150Z,9.00
2022-11-17T12:46:08.308Z,9.90
2022-11-17T12:48:36.843Z,10.57
2022-11-17T12:51:09.100Z,8.20
2022-11-17T12:53:57.699Z,10.50
2022-11-17T12:57:00.037Z,10.88
2022-11-17T12:59:53.044Z,12.00
2022-11-17T13:02:48.900Z,7.82
2022-11-17T13:05:19.243Z,8.37
2022-11-17T13:07:42.856Z,10.90
2022-11-17T13:10:07.292Z,11.57
2022-11-17T13:12:32.640Z,10.40
2022-11-17T13:14:58.078Z,11.17
2022-11-17T13:17:24.192Z,11.00
2022-11-17T13:19:48.097Z,9.67
2022-11-17T13:22:19.733Z,11.87
2022-11-17T13:24:45.866Z,11.43
2022-11-17T13:27:23.197Z,11.67
2022-11-17T13:29:47.044Z,11.73
2022-11-17T13:32:20.296Z,10.80
2022-11-17T13:34:48.791Z,10.50
2022-11-17T13:37:20.149Z,11.33
2022-11-17T13:39:56.850Z,11.50
2022-11-17T13:42:23.519Z,11.53
2022-11-17T13:44:47.470Z,10.57
2022-11-17T13:47:21.641Z,11.27
2022-11-17T13:49:45.349Z,10.40
2022-11-17T13:52:37.979Z,12.20
2022-11-17T13:55:08.037Z,11.40
2022-11-17T13:57:32.467Z,12.20
2022-11-17T13:59:57.088Z,11.47
2022-11-17T14:02:29.543Z,12.33
2022-11-17T14:05:23.824Z,12.77
2022-11-17T14:07:50.669Z,12.93
2022-11-17T14:10:16.257Z,11.23
2022-11-17T14:12:39.804Z,12.37
2022-11-17T14:15:03.553Z,9.87
2022-11-17T14:17:27.191Z,10.88
2022-11-17T14:19:50.977Z,11.20
2022-11-17T14:22:32.502Z,13.03
2022-11-17T14:24:57.526Z,11.47
2022-11-17T14:27:43.431Z,7.73
2022-11-17T14:30:08.624Z,11.83
2022-11-17T14:32:34.735Z,10.37
2022-11-17T14:34:59.576Z,8.33
2022-11-17T14:37:23.125Z,12.80
2022-11-17T14:39:46.740Z,12.93
2022-11-17T14:42:12.243Z,11.93
2022-11-17T14:44:35.830Z,11.77
2022-11-17T14:46:59.371Z,10.83
2022-11-17T14:49:22.931Z,10.20
2022-11-17T14:51:49.965Z,10.03
2022-11-17T14:54:13.592Z,11.40
2022-11-17T14:56:37.110Z,13.10
2022-11-17T14:59:02.408Z,10.57
2022-11-17T15:01:30.417Z,13.23
2022-11-17T15:03:55.311Z,13.33
2022-11-17T15:06:20.371Z,11.67
2022-11-17T15:08:44.960Z,13.20
2022-11-17T15:11:08.615Z,13.37
2022-11-17T15:13:32.371Z,13.63
2022-11-17T15:16:04.206Z,13.57
2022-11-17T15:18:27.879Z,13.40
2022-11-17T15:21:02.059Z,13.03
2022-11-17T15:23:25.704Z,14.30
2022-11-17T15:25:49.211Z,11.52
2022-11-17T15:28:18.925Z,14.40
2022-11-17T15:30:44.998Z,14.83
2022-11-17T15:33:09.921Z,15.50
2022-11-17T15:35:33.571Z,15.30
2022-11-17T15:37:57.069Z,14.23
2022-11-17T15:40:20.669Z,14.13
2022-11-17T15:42:44.217Z,14.37
2022-11-17T15:45:09.460Z,13.47
2022-11-17T15:47:33.466Z,14.47
2022-11-17T15:49:59.065Z,14.87
2022-11-17T15:52:41.739Z,14.70
2022-11-17T15:55:07.232Z,12.43
2022-11-17T15:57:30.748Z,15.03
2022-11-17T15:59:54.530Z,15.47
2022-11-17T16:02:19.388Z,13.90
2022-11-17T16:04:43.154Z,16.10
2022-11-17T16:07:08.263Z,12.43
2022-11-17T16:09:31.952Z,14.23
2022-11-17T16:11:55.510Z,15.90
2022-11-17T16:14:19.127Z,15.43
2022-11-17T16:16:43.855Z,16.03
2022-11-17T16:19:08.284Z,15.53
2022-11-17T16:21:31.874Z,13.73
2022-11-17T16:24:00.545Z,13.60
2022-11-17T16:26:26.082Z,16.37
2022-11-17T16:28:49.865Z,16.47
2022-11-17T16:31:16.201Z,12.70
2022-11-17T16:33:39.783Z,16.47
2022-11-17T16:36:06.399Z,13.83
2022-11-17T16:38:30.028Z,15.27
2022-11-17T16:40:55.018Z,11.97
2022-11-17T16:43:18.633Z,14.57
2022-11-17T16:45:45.025Z,15.40
2022-11-17T16:48:09.223Z,14.60
2022-11-17T16:50:32.755Z,15.90
2022-11-17T16:52:56.365Z,11.33
2022-11-17T16:55:19.943Z,15.83
2022-11-17T16:57:45.566Z,15.40
2022-11-17T17:00:11.328Z,15.70
2022-11-17T17:02:35.031Z,13.13
2022-11-17T17:04:58.535Z,16.10
2022-11-17T17:07:22.179Z,13.50
2022-11-17T17:09:45.869Z,15.73
2022-11-17T17:12:09.545Z,16.63
2022-11-17T17:14:34.444Z,15.50
2022-11-17T17:16:58.102Z,15.93
2022-11-17T17:19:21.680Z,12.60
2022-11-17T17:21:46.032Z,15.53
2022-11-17T17:24:11.025Z,13.87
2022-11-17T17:26:35.974Z,15.80
2022-11-17T17:29:01.351Z,16.47
2022-11-17T17:31:30.640Z,14.43
2022-11-17T17:33:56.144Z,16.50
2022-11-17T17:36:21.701Z,15.70
2022-11-17T17:38:50.123Z,16.50
2022-11-17T17:41:18.905Z,15.53
2022-11-17T17:43:43.711Z,16.97
2022-11-17T17:46:15.327Z,16.47
2022-11-17T17:48:42.680Z,15.77
2022-11-17T17:51:09.605Z,13.93
2022-11-17T17:53:33.572Z,14.30
2022-11-17T17:56:01.483Z,16.37
2022-11-17T17:58:25.077Z,16.87
2022-11-17T18:00:49.823Z,18.20
2022-11-17T18:03:13.493Z,19.00
2022-11-17T18:05:38.439Z,19.13
2022-11-17T18:08:02.057Z,18.20
2022-11-17T18:10:25.649Z,16.20
2022-11-17T18:12:49.289Z,17.33
2022-11-17T18:15:13.239Z,17.90
2022-11-17T18:17:36.910Z,18.90
2022-11-17T18:20:00.566Z,17.77
2022-11-17T18:22:25.561Z,15.33
2022-11-17T18:24:49.088Z,19.03
2022-11-17T18:27:12.715Z,18.47
2022-11-17T18:29:36.271Z,18.03
2022-11-17T18:31:59.861Z,16.80
2022-11-17T18:34:25.350Z,19.23
2022-11-17T18:36:49.209Z,19.00
2022-11-17T18:39:15.127Z,19.73
2022-11-17T18:41:38.996Z,19.97
2022-11-17T18:44:02.919Z,18.33
2022-11-17T18:46:30.033Z,20.20
2022-11-17T18:48:56.000Z,18.00
2022-11-17T18:51:21.963Z,19.37
2022-11-17T18:53:45.784Z,11.43
2022-11-17T18:56:13.667Z,20.67
2022-11-17T18:58:37.694Z,19.50
2022-11-17T19:01:08.243Z,21.37
2022-11-17T19:03:31.917Z,19.43
2022-11-17T19:05:55.433Z,20.37
2022-11-17T19:08:19.124Z,22.10
2022-11-17T19:10:51.354Z,19.67
2022-11-17T19:13:16.307Z,20.10
2022-11-17T19:15:39.803Z,19.53
2022-11-17T19:18:03.429Z,18.33
2022-11-17T19:20:27.236Z,19.53
2022-11-17T19:22:50.829Z,20.70
2022-11-17T19:25:14.515Z,17.37
2022-11-17T19:27:38.103Z,16.43
2022-11-17T19:30:03.017Z,18.57
2022-11-17T19:32:26.620Z,20.97
2022-11-17T19:34:51.805Z,16.53
2022-11-17T19:37:15.727Z,19.67
2022-11-17T19:39:39.307Z,20.50
2022-11-17T19:42:02.950Z,20.50
2022-11-17T19:44:26.464Z,16.80
2022-11-17T19:46:51.395Z,19.57
2022-11-17T19:49:15.411Z,20.63
2022-11-17T19:51:39.823Z,17.10
2022-11-17T19:54:05.537Z,20.23
2022-11-17T19:56:29.444Z,22.30
2022-11-17T19:58:53.764Z,21.33
2022-11-17T20:01:19.571Z,21.00
2022-11-17T20:03:45.218Z,21.50
2022-11-17T20:06:10.136Z,21.73
2022-11-17T20:08:34.388Z,19.83
2022-11-17T20:11:05.198Z,20.23
2022-11-17T20:13:30.946Z,21.00
2022-11-17T20:15:57.806Z,20.27
2022-11-17T20:18:21.381Z,21.13
2022-11-17T20:20:46.354Z,19.57
2022-11-17T20:23:10.052Z,21.13
2022-11-17T20:25:33.600Z,20.30
2022-11-17T20:27:57.313Z,18.97
2022-11-17T20:30:21.010Z,20.70
2022-11-17T20:32:44.747Z,19.67
2022-11-17T20:35:09.310Z,21.57
2022-11-17T20:37:34.297Z,21.50
2022-11-17T20:39:57.925Z,15.50
2022-11-17T20:42:21.590Z,21.60
2022-11-17T20:44:45.495Z,22.93
2022-11-17T20:47:09.079Z,17.10
2022-11-17T20:49:32.660Z,22.60
2022-11-17T20:51:56.192Z,20.00
2022-11-17T20:54:21.121Z,19.97
2022-11-17T20:56:45.221Z,17.23
2022-11-17T20:59:08.982Z,20.50
2022-11-17T21:01:32.785Z,20.40
2022-11-17T21:03:56.327Z,21.30
2022-11-17T21:06:23.052Z,19.77
2022-11-17T21:08:47.459Z,19.73
2022-11-17T21:11:35.789Z,15.90
2022-11-17T21:13:59.773Z,19.90
2022-11-17T21:16:23.290Z,19.13
2022-11-17T21:18:49.078Z,20.73
2022-11-17T21:21:12.675Z,19.17
2022-11-17T21:23:36.286Z,19.73
2022-11-17T21:26:04.406Z,15.53
2022-11-17T21:28:29.344Z,20.80
2022-11-17T21:30:53.098Z,19.27
2022-11-17T21:33:16.935Z,18.83
2022-11-17T21:35:40.492Z,18.83
2022-11-17T21:38:04.147Z,18.60
2022-11-17T21:40:27.683Z,19.07
2022-11-17T21:42:51.264Z,19.17
2022-11-17T21:45:16.276Z,16.23
2022-11-17T21:47:39.864Z,18.40
2022-11-17T21:50:03.429Z,18.00
2022-11-17T21:52:27.149Z,19.07
2022-11-17T21:54:50.741Z,18.67
2022-11-17T21:57:14.410Z,17.70
2022-11-17T21:59:37.959Z,17.83
2022-11-17T22:02:03.133Z,18.83
2022-11-17T22:04:26.647Z,19.27
2022-11-17T22:06:50.242Z,19.17
2022-11-17T22:09:14.318Z,19.57
2022-11-17T22:11:39.167Z,18.27
2022-11-17T22:14:05.548Z,18.73
2022-11-17T22:16:29.114Z,17.60
2022-11-17T22:18:53.981Z,13.03
2022-11-17T22:21:17.573Z,18.53
2022-11-17T22:23:41.495Z,18.73
2022-11-17T22:26:07.870Z,14.70
2022-11-17T22:28:32.177Z,18.87
2022-11-17T22:30:56.562Z,17.07
2022-11-17T22:33:20.413Z,18.83
2022-11-17T22:35:45.429Z,19.57
2022-11-17T22:38:08.978Z,18.97
2022-11-17T22:40:32.563Z,18.17
2022-11-17T22:42:56.073Z,17.70
2022-11-17T22:45:19.636Z,19.20
2022-11-17T22:47:43.188Z,19.03
2022-11-17T22:50:07.965Z,20.13
2022-11-17T22:52:32.864Z,19.23
2022-11-17T22:54:56.409Z,12.87
2022-11-17T22:57:19.950Z,18.40
2022-11-17T22:59:43.539Z,19.00
2022-11-17T23:02:07.047Z,17.57
2022-11-17T23:04:30.651Z,16.83
2022-11-17T23:06:54.262Z,15.97
2022-11-17T23:09:19.406Z,19.63
2022-11-17T23:11:43.690Z,20.40
2022-11-17T23:14:10.704Z,19.37
2022-11-17T23:16:34.263Z,19.03
2022-11-17T23:18:58.840Z,18.90
2022-11-17T23:21:22.747Z,13.03
2022-11-17T23:23:46.339Z,18.73
2022-11-17T23:26:13.524Z,20.40
2022-11-17T23:28:37.443Z,21.00
2022-11-17T23:31:01.502Z,15.90
2022-11-17T23:33:25.100Z,18.63
2022-11-17T23:35:48.671Z,16.47
2022-11-17T23:38:12.244Z,20.57
2022-11-17T23:40:35.748Z,21.27
2022-11-17T23:43:00.720Z,22.00
2022-11-17T23:45:24.237Z,18.97
2022-11-17T23:47:47.855Z,21.13
2022-11-17T23:50:11.601Z,19.53
2022-11-17T23:52:35.201Z,20.10
2022-11-17T23:54:58.800Z,22.57
2022-11-17T23:57:22.387Z,19.10
2022-11-17T23:59:47.294Z,21.17
